Time;durP1;ratioP1;P1;durP2;ratioP2;P2;SDS_P1;SDS_P2;PMS_P1;PMS_P2;Temp;Humidity;BMP_temperature;BMP_pressure;BME280_temperature;BME280_humidity;BME280_pressure;Samples;Min_cycle;Max_cycle;Signal;HPM_P1;HPM_P2
2022/12/22 03:29:59;;;;;;;5.15;4.75;;;;;;;;;;10303016;28;20225;-78
2022/12/22 03:35:00;;;;;;;5.70;4.32;;;;;;;;;;10310431;28;20216;-76
2022/12/22 03:40:01;;;;;;;5.18;4.68;;;;;;;;;;10300757;28;20565;-77
2022/12/22 03:50:22;;;;;;;8.18;4.82;;;;;;;;;;10335440;28;20228;-78
2022/12/22 03:55:23;;;;;;;4.65;4.25;;;;;;;;;;10318540;28;20224;-77
2022/12/22 04:00:24;;;;;;;4.88;4.47;;;;;;;;;;10307686;28;20239;-76
2022/12/22 04:05:25;;;;;;;7.30;4.32;;;;;;;;;;10353222;28;20223;-77
2022/12/22 04:15:47;;;;;;;4.82;4.30;;;;;;;;;;10296690;28;20321;-77
2022/12/22 04:20:48;;;;;;;4.70;4.00;;;;;;;;;;10291602;28;20767;-77
2022/12/22 04:25:49;;;;;;;5.15;4.65;;;;;;;;;;10297391;28;20309;-77
2022/12/22 04:30:51;;;;;;;3.75;3.55;;;;;;;;;;10300608;28;20220;-77
2022/12/22 04:35:52;;;;;;;3.63;3.42;;;;;;;;;;10287955;28;20651;-76
2022/12/22 04:40:53;;;;;;;3.53;3.33;;;;;;;;;;10281904;28;20857;-77
2022/12/22 04:45:54;;;;;;;3.58;3.25;;;;;;;;;;10292515;28;20787;-77
2022/12/22 04:50:56;;;;;;;3.83;3.45;;;;;;;;;;10281677;28;20251;-76
2022/12/22 04:55:59;;;;;;;5.93;3.28;;;;;;;;;;10297954;28;20233;-78
2022/12/22 05:01:10;;;;;;;3.47;3.28;;;;;;;;;;10307287;28;20228;-77
2022/12/22 05:06:13;;;;;;;2.95;2.75;;;;;;;;;;10306493;28;20224;-77
2022/12/22 05:11:14;;;;;;;3.88;3.63;;;;;;;;;;10312360;28;20274;-77
2022/12/22 05:16:15;;;;;;;3.05;2.78;;;;;;;;;;10316203;28;20537;-77
2022/12/22 05:21:19;;;;;;;3.78;3.58;;;;;;;;;;10309884;28;20304;-76
2022/12/22 05:26:20;;;;;;;3.00;2.90;;;;;;;;;;10323107;28;20821;-77
2022/12/22 05:31:21;;;;;;;3.88;3.60;;;;;;;;;;10324027;28;20218;-76
2022/12/22 05:36:22;;;;;;;5.57;4.15;;;;;;;;;;10324617;28;20292;-77
2022/12/22 05:41:23;;;;;;;4.00;3.80;;;;;;;;;;10304486;28;20208;-77
2022/12/22 05:46:24;;;;;;;4.47;4.10;;;;;;;;;;10306151;28;20217;-77
2022/12/22 05:51:25;;;;;;;4.00;3.70;;;;;;;;;;10306855;28;20213;-77
2022/12/22 05:56:26;;;;;;;3.83;3.63;;;;;;;;;;10294976;28;20221;-77
2022/12/22 06:01:27;;;;;;;4.40;4.03;;;;;;;;;;10314705;28;20224;-76
2022/12/22 06:06:29;;;;;;;4.55;4.22;;;;;;;;;;10314111;28;20220;-76
2022/12/22 06:11:30;;;;;;;4.40;4.10;;;;;;;;;;10295228;28;20213;-77
2022/12/22 06:16:31;;;;;;;4.15;3.40;;;;;;;;;;10298573;28;20225;-78
2022/12/22 06:21:32;;;;;;;4.43;4.03;;;;;;;;;;10301253;28;20225;-78
2022/12/22 06:26:33;;;;;;;5.32;3.97;;;;;;;;;;10303992;28;20213;-76
2022/12/22 06:31:34;;;;;;;6.57;4.65;;;;;;;;;;10299775;28;20216;-76
2022/12/22 06:36:35;;;;;;;4.15;3.85;;;;;;;;;;10317218;28;20225;-76
2022/12/22 06:46:56;;;;;;;4.85;4.40;;;;;;;;;;10290504;28;20240;-76
2022/12/22 06:51:58;;;;;;;4.97;4.43;;;;;;;;;;10292503;28;20220;-76
2022/12/22 06:56:59;;;;;;;5.15;4.35;;;;;;;;;;10295955;28;20224;-77
2022/12/22 07:02:00;;;;;;;4.80;4.40;;;;;;;;;;10293539;28;20247;-76
2022/12/22 07:07:01;;;;;;;5.47;4.97;;;;;;;;;;10300410;28;20224;-76
2022/12/22 07:12:02;;;;;;;7.95;5.28;;;;;;;;;;10300135;28;20704;-79
2022/12/22 07:17:03;;;;;;;5.03;4.55;;;;;;;;;;10314937;28;20263;-77
2022/12/22 07:22:04;;;;;;;6.18;5.72;;;;;;;;;;10331260;28;20282;-79
2022/12/22 07:27:05;;;;;;;5.63;5.03;;;;;;;;;;10338741;28;20220;-77
2022/12/22 07:32:06;;;;;;;6.03;5.45;;;;;;;;;;10335893;28;20320;-77
2022/12/22 07:37:07;;;;;;;5.47;4.97;;;;;;;;;;10337230;28;20882;-77
2022/12/22 07:47:31;;;;;;;6.93;5.05;;;;;;;;;;10337655;28;20222;-76
2022/12/22 07:52:32;;;;;;;5.22;4.75;;;;;;;;;;10305695;28;20849;-77
2022/12/22 07:57:34;;;;;;;5.75;5.25;;;;;;;;;;10275675;28;20267;-76
2022/12/22 08:02:35;;;;;;;6.38;5.10;;;;;;;;;;10308449;28;20239;-78
2022/12/22 08:07:36;;;;;;;6.40;5.25;;;;;;;;;;10311309;28;20275;-77
2022/12/22 08:12:38;;;;;;;6.43;5.25;;;;;;;;;;10298365;28;20504;-79
2022/12/22 08:17:39;;;;;;;7.93;5.40;;;;;;;;;;10288914;28;20229;-76
2022/12/22 08:22:40;;;;;;;6.57;5.95;;;;;;;;;;10297230;28;20240;-78
2022/12/22 08:27:47;;;;;;;5.65;5.18;;;;;;;;;;10292228;28;21788;-77
2022/12/22 08:32:50;;;;;;;7.40;4.80;;;;;;;;;;10295286;28;20307;-77
2022/12/22 08:37:51;;;;;;;6.43;5.68;;;;;;;;;;10288172;28;21272;-76
2022/12/22 08:42:57;;;;;;;6.53;5.10;;;;;;;;;;10317537;28;20211;-78
2022/12/22 08:47:58;;;;;;;5.68;5.18;;;;;;;;;;10302792;28;20233;-77
2022/12/22 08:53:06;;;;;;;5.65;5.10;;;;;;;;;;10275290;28;20358;-78
2022/12/22 08:58:07;;;;;;;5.80;5.20;;;;;;;;;;10295322;28;20221;-78
2022/12/22 09:03:08;;;;;;;5.53;5.05;;;;;;;;;;10285029;28;20363;-80
2022/12/22 09:08:09;;;;;;;5.45;4.90;;;;;;;;;;10292247;28;20217;-78
2022/12/22 09:13:10;;;;;;;5.70;4.72;;;;;;;;;;10267269;28;20248;-78
2022/12/22 09:18:11;;;;;;;5.32;4.88;;;;;;;;;;10274864;28;20229;-76
2022/12/22 09:23:12;;;;;;;5.18;3.83;;;;;;;;;;10261472;28;20221;-78
2022/12/22 09:28:13;;;;;;;4.13;3.85;;;;;;;;;;10288704;28;20226;-77
2022/12/22 09:33:14;;;;;;;6.25;4.63;;;;;;;;;;10257993;28;20723;-76
2022/12/22 09:38:15;;;;;;;4.80;4.50;;;;;;;;;;10293415;28;20287;-78
2022/12/22 09:43:18;;;;;;;6.10;5.32;;;;;;;;;;10279823;28;20217;-78
2022/12/22 09:48:19;;;;;;;4.95;4.47;;;;;;;;;;10300129;28;20253;-78
2022/12/22 09:53:21;;;;;;;6.15;5.18;;;;;;;;;;10266890;28;20720;-77
2022/12/22 09:58:25;;;;;;;7.20;5.68;;;;;;;;;;10277558;28;20636;-77
2022/12/22 10:03:38;;;;;;;5.35;4.82;;;;;;;;;;10302987;28;20229;-77
2022/12/22 10:08:39;;;;;;;6.20;4.93;;;;;;;;;;10305380;28;20650;-75
2022/12/22 10:13:41;;;;;;;5.15;4.65;;;;;;;;;;10299513;28;20250;-78
2022/12/22 10:18:53;;;;;;;5.07;4.57;;;;;;;;;;10299436;28;20291;-78
2022/12/22 10:23:54;;;;;;;5.10;4.32;;;;;;;;;;10292818;28;20709;-79
2022/12/22 10:29:06;;;;;;;4.70;3.75;;;;;;;;;;10297541;28;20216;-77
2022/12/22 10:34:11;;;;;;;5.60;3.72;;;;;;;;;;10297461;28;20216;-78
2022/12/22 10:39:18;;;;;;;5.35;2.92;;;;;;;;;;10313877;28;20243;-77
2022/12/22 10:44:22;;;;;;;2.63;2.42;;;;;;;;;;10335761;28;20250;-77
2022/12/22 10:49:23;;;;;;;2.28;2.17;;;;;;;;;;10314634;28;20562;-78
2022/12/22 10:54:28;;;;;;;2.70;2.60;;;;;;;;;;10309532;28;20218;-77
2022/12/22 10:59:30;;;;;;;3.00;2.40;;;;;;;;;;10303323;28;20240;-78
2022/12/22 11:04:31;;;;;;;4.38;2.42;;;;;;;;;;10300631;28;20291;-78
2022/12/22 11:09:32;;;;;;;2.72;2.53;;;;;;;;;;10313614;28;20236;-78
2022/12/22 11:14:56;;;;;;;2.40;2.30;;;;;;;;;;10301111;28;20220;-78
2022/12/22 11:20:24;;;;;;;2.35;2.30;;;;;;;;;;10295562;28;20287;-79
2022/12/22 11:25:40;;;;;;;2.05;2.05;;;;;;;;;;10298139;28;20331;-77
2022/12/22 11:30:47;;;;;;;1.55;1.55;;;;;;;;;;10301934;28;20216;-79
2022/12/22 11:36:00;;;;;;;2.10;2.08;;;;;;;;;;10310657;28;20523;-78
2022/12/22 11:41:12;;;;;;;1.67;1.65;;;;;;;;;;10300207;28;20214;-78
2022/12/22 11:46:17;;;;;;;4.28;2.13;;;;;;;;;;10304084;28;20580;-78
2022/12/22 11:51:36;;;;;;;1.98;1.98;;;;;;;;;;10310944;28;20220;-78
2022/12/22 11:56:42;;;;;;;2.65;1.95;;;;;;;;;;10310737;28;20217;-77
2022/12/22 12:01:57;;;;;;;2.10;1.90;;;;;;;;;;10303928;28;20341;-77
2022/12/22 12:07:21;;;;;;;2.35;1.60;;;;;;;;;;10317120;28;20234;-78
2022/12/22 12:12:27;;;;;;;2.15;2.05;;;;;;;;;;10316792;28;20223;-79
2022/12/22 12:17:31;;;;;;;2.10;2.10;;;;;;;;;;10286306;28;20310;-78
2022/12/22 12:22:37;;;;;;;2.20;2.03;;;;;;;;;;10338261;28;21341;-77
2022/12/22 12:27:46;;;;;;;2.45;2.35;;;;;;;;;;10291312;28;20301;-79
2022/12/22 12:32:51;;;;;;;3.13;2.92;;;;;;;;;;10313585;28;20240;-79
2022/12/22 12:37:56;;;;;;;3.22;3.00;;;;;;;;;;10298240;28;20244;-80
2022/12/22 12:42:59;;;;;;;2.80;2.70;;;;;;;;;;10292520;28;20322;-78
2022/12/22 12:48:18;;;;;;;3.30;3.00;;;;;;;;;;10311995;28;20221;-78
2022/12/22 12:53:20;;;;;;;1.92;1.92;;;;;;;;;;10273208;28;20213;-80
2022/12/22 12:58:36;;;;;;;2.10;2.00;;;;;;;;;;10297450;28;20228;-78
2022/12/22 13:03:39;;;;;;;1.92;1.88;;;;;;;;;;10319405;28;20712;-77
2022/12/22 13:08:59;;;;;;;1.42;1.33;;;;;;;;;;10335911;28;20339;-78
2022/12/22 13:14:01;;;;;;;1.50;1.50;;;;;;;;;;10338511;28;20217;-79
2022/12/22 13:19:04;;;;;;;1.83;1.73;;;;;;;;;;10324480;28;20220;-78
2022/12/22 13:24:13;;;;;;;1.80;1.73;;;;;;;;;;10329192;28;20216;-78
2022/12/22 13:29:14;;;;;;;2.15;2.15;;;;;;;;;;10338035;28;20231;-78
2022/12/22 13:34:29;;;;;;;3.13;2.92;;;;;;;;;;10416666;23;20862;-80
2022/12/22 13:39:30;;;;;;;2.95;2.75;;;;;;;;;;10432894;28;20657;-82
2022/12/22 13:44:32;;;;;;;3.72;3.50;;;;;;;;;;10473010;28;20206;-79
2022/12/22 13:49:34;;;;;;;4.20;3.88;;;;;;;;;;10464603;28;20210;-79
2022/12/22 13:54:36;;;;;;;3.08;2.78;;;;;;;;;;10481247;28;20218;-80
2022/12/22 13:59:41;;;;;;;3.40;3.20;;;;;;;;;;10455193;28;20567;-79
2022/12/22 14:04:45;;;;;;;2.90;2.72;;;;;;;;;;10461895;28;20597;-78
2022/12/22 14:09:50;;;;;;;3.63;3.15;;;;;;;;;;10465752;28;20624;-79
2022/12/22 14:14:51;;;;;;;3.13;2.97;;;;;;;;;;10462698;28;20222;-78
2022/12/22 14:19:54;;;;;;;3.13;2.92;;;;;;;;;;10469897;28;20246;-78
2022/12/22 14:24:57;;;;;;;3.20;3.00;;;;;;;;;;10465124;28;20482;-79
2022/12/22 14:30:00;;;;;;;2.90;2.70;;;;;;;;;;10472293;28;20225;-79
2022/12/22 14:35:01;;;;;;;3.97;3.67;;;;;;;;;;10465660;28;20262;-78
2022/12/22 14:40:02;;;;;;;3.55;3.30;;;;;;;;;;10449771;28;20338;-75
2022/12/22 14:45:13;;;;;;;4.53;4.13;;;;;;;;;;10456874;28;20190;-78
2022/12/22 14:50:18;;;;;;;4.70;4.25;;;;;;;;;;10473490;28;20202;-79
2022/12/22 14:55:34;;;;;;;4.38;4.07;;;;;;;;;;10461681;28;20214;-78
2022/12/22 15:00:36;;;;;;;5.03;4.60;;;;;;;;;;10466928;28;20634;-78
2022/12/22 15:05:37;;;;;;;6.22;4.53;;;;;;;;;;10460592;28;20727;-77
2022/12/22 15:10:40;;;;;;;5.07;4.32;;;;;;;;;;10466409;28;20232;-78
2022/12/22 15:15:42;;;;;;;6.35;5.55;;;;;;;;;;10462883;28;20229;-79
2022/12/22 15:20:43;;;;;;;4.82;4.43;;;;;;;;;;10448366;28;20858;-78
2022/12/22 15:25:44;;;;;;;7.18;5.47;;;;;;;;;;10444886;28;20250;-78
2022/12/22 15:30:45;;;;;;;7.63;5.72;;;;;;;;;;10442112;28;20697;-78
2022/12/22 15:35:47;;;;;;;7.55;6.03;;;;;;;;;;10442637;28;20971;-78
2022/12/22 15:40:48;;;;;;;14.23;5.97;;;;;;;;;;10451381;28;20229;-77
2022/12/22 15:45:49;;;;;;;8.05;5.75;;;;;;;;;;10437959;28;21116;-77
2022/12/22 15:50:50;;;;;;;7.15;6.45;;;;;;;;;;10423385;28;20225;-77
2022/12/22 15:55:53;;;;;;;9.57;6.93;;;;;;;;;;10448196;28;20222;-78
2022/12/22 16:00:54;;;;;;;11.05;6.50;;;;;;;;;;10451092;28;20213;-77
2022/12/22 16:05:56;;;;;;;9.68;7.15;;;;;;;;;;10447894;28;20280;-78
2022/12/22 16:10:58;;;;;;;9.35;6.30;;;;;;;;;;10468367;28;23969;-77
2022/12/22 16:15:59;;;;;;;10.80;7.30;;;;;;;;;;10461821;28;20227;-78
2022/12/22 16:21:06;;;;;;;12.25;8.10;;;;;;;;;;10448233;28;20217;-77
2022/12/22 16:26:07;;;;;;;11.82;7.95;;;;;;;;;;10449201;28;20252;-77
2022/12/22 16:31:19;;;;;;;12.38;7.57;;;;;;;;;;10462973;28;20267;-77
2022/12/22 16:36:20;;;;;;;18.40;7.28;;;;;;;;;;10434804;28;20287;-77
2022/12/22 16:41:24;;;;;;;8.50;7.30;;;;;;;;;;10464806;28;20207;-77
2022/12/22 16:46:26;;;;;;;11.82;6.75;;;;;;;;;;10457024;28;20324;-77
2022/12/22 16:51:36;;;;;;;14.40;8.30;;;;;;;;;;10457401;28;20217;-77
2022/12/22 16:56:37;;;;;;;16.10;8.70;;;;;;;;;;10450731;28;20225;-76
2022/12/22 17:01:45;;;;;;;12.43;7.32;;;;;;;;;;10476970;28;20198;-78
2022/12/22 17:06:47;;;;;;;9.57;7.05;;;;;;;;;;10456329;28;20222;-78
2022/12/22 17:11:48;;;;;;;8.73;7.07;;;;;;;;;;10464649;28;20214;-78
2022/12/22 17:16:52;;;;;;;11.73;8.35;;;;;;;;;;10434595;28;20227;-79
2022/12/22 17:21:53;;;;;;;13.32;8.25;;;;;;;;;;10460098;28;20238;-78
2022/12/22 17:26:54;;;;;;;23.08;12.60;;;;;;;;;;10425137;28;20232;-79
2022/12/22 17:31:55;;;;;;;23.27;12.73;;;;;;;;;;10470859;28;20693;-79
2022/12/22 17:36:58;;;;;;;41.13;21.27;;;;;;;;;;10455561;28;20236;-79
2022/12/22 17:41:59;;;;;;;133.82;47.65;;;;;;;;;;10471609;28;20214;-78
2022/12/22 17:47:00;;;;;;;54.65;25.23;;;;;;;;;;10439972;28;20781;-80
2022/12/22 17:52:02;;;;;;;53.97;26.67;;;;;;;;;;10456847;28;20221;-79
2022/12/22 17:57:03;;;;;;;53.92;28.35;;;;;;;;;;10465821;28;20218;-78
2022/12/22 18:02:04;;;;;;;47.22;24.05;;;;;;;;;;10441850;28;20278;-79
2022/12/22 18:07:05;;;;;;;32.92;17.05;;;;;;;;;;10452498;28;20206;-79
2022/12/22 18:12:32;;;;;;;16.25;11.20;;;;;;;;;;10447857;28;20211;-79
2022/12/22 18:17:34;;;;;;;13.73;8.30;;;;;;;;;;10459003;28;20219;-79
2022/12/22 18:22:35;;;;;;;13.40;7.43;;;;;;;;;;10449203;28;20214;-79
2022/12/22 18:27:36;;;;;;;12.73;7.65;;;;;;;;;;10463999;28;20294;-79
2022/12/22 18:32:39;;;;;;;14.57;8.35;;;;;;;;;;10478011;28;20230;-78
2022/12/22 18:37:40;;;;;;;10.77;7.03;;;;;;;;;;10457767;28;20300;-78
2022/12/22 18:42:41;;;;;;;23.27;10.10;;;;;;;;;;10477011;28;20215;-78
2022/12/22 18:47:43;;;;;;;13.70;6.72;;;;;;;;;;10480758;28;20306;-79
2022/12/22 18:52:44;;;;;;;6.00;5.03;;;;;;;;;;10468158;28;20657;-79
2022/12/22 18:57:46;;;;;;;9.23;5.82;;;;;;;;;;10467426;28;20252;-78
2022/12/22 19:02:48;;;;;;;12.88;7.82;;;;;;;;;;10465111;28;20775;-79
2022/12/22 19:07:49;;;;;;;12.57;7.47;;;;;;;;;;10446884;28;20272;-77
2022/12/22 19:12:52;;;;;;;11.70;8.07;;;;;;;;;;10470181;28;20236;-78
2022/12/22 19:17:54;;;;;;;14.35;8.30;;;;;;;;;;10462286;28;20222;-78
2022/12/22 19:22:55;;;;;;;9.35;6.75;;;;;;;;;;10452858;28;20228;-86
2022/12/22 19:27:57;;;;;;;10.63;6.68;;;;;;;;;;10445756;28;20304;-80
2022/12/22 19:33:00;;;;;;;11.73;7.55;;;;;;;;;;10468285;28;20752;-81
2022/12/22 19:38:02;;;;;;;17.23;8.43;;;;;;;;;;10442117;28;20230;-75
2022/12/22 19:43:03;;;;;;;10.30;7.20;;;;;;;;;;10440021;28;20342;-87
2022/12/22 19:48:04;;;;;;;9.90;6.95;;;;;;;;;;10465401;28;20214;-76
2022/12/22 19:53:05;;;;;;;7.68;6.20;;;;;;;;;;10469543;28;20222;-75
2022/12/22 19:58:11;;;;;;;12.95;6.85;;;;;;;;;;10462389;28;20617;-75
2022/12/22 20:03:14;;;;;;;9.70;6.72;;;;;;;;;;10436767;28;20241;-76
2022/12/22 20:08:15;;;;;;;13.65;7.88;;;;;;;;;;10455164;28;20305;-76
2022/12/22 20:13:18;;;;;;;12.40;7.03;;;;;;;;;;10452446;28;20246;-76
2022/12/22 20:18:20;;;;;;;8.88;5.07;;;;;;;;;;10458219;28;20214;-76
2022/12/22 20:23:22;;;;;;;7.20;5.78;;;;;;;;;;10442234;28;20811;-75
2022/12/22 20:28:25;;;;;;;21.00;11.73;;;;;;;;;;10458800;28;20271;-75
2022/12/22 20:33:27;;;;;;;14.50;8.38;;;;;;;;;;10455696;28;20234;-75
2022/12/22 20:38:30;;;;;;;7.45;5.53;;;;;;;;;;10460313;28;20221;-76
2022/12/22 20:43:32;;;;;;;10.05;6.13;;;;;;;;;;10442786;28;20214;-76
2022/12/22 20:48:34;;;;;;;8.18;5.75;;;;;;;;;;10456214;28;20214;-74
2022/12/22 20:53:36;;;;;;;8.57;5.80;;;;;;;;;;10443368;28;20206;-75
2022/12/22 20:58:37;;;;;;;5.65;4.80;;;;;;;;;;10459041;28;20256;-75
2022/12/22 21:03:38;;;;;;;8.50;5.68;;;;;;;;;;10447736;28;20296;-76
2022/12/22 21:08:39;;;;;;;8.90;6.50;;;;;;;;;;10458719;28;20216;-75
2022/12/22 21:13:40;;;;;;;9.98;5.72;;;;;;;;;;10458163;28;20283;-76
2022/12/22 21:18:41;;;;;;;5.63;4.80;;;;;;;;;;10459331;28;20263;-75
2022/12/22 21:23:42;;;;;;;7.75;4.75;;;;;;;;;;10463342;28;20701;-75
2022/12/22 21:28:43;;;;;;;12.25;6.13;;;;;;;;;;10425202;28;20581;-76
2022/12/22 21:33:45;;;;;;;7.65;5.30;;;;;;;;;;10460619;28;20226;-76
2022/12/22 21:38:47;;;;;;;9.48;5.05;;;;;;;;;;10465698;28;20242;-75
2022/12/22 21:43:48;;;;;;;7.43;4.72;;;;;;;;;;10448520;28;20218;-76
2022/12/22 21:48:49;;;;;;;6.25;4.53;;;;;;;;;;10436704;28;20228;-75
2022/12/22 21:53:50;;;;;;;6.20;3.92;;;;;;;;;;10469397;28;20624;-75
2022/12/22 21:58:51;;;;;;;4.53;3.95;;;;;;;;;;10466594;28;20603;-76
2022/12/22 22:03:52;;;;;;;6.82;5.40;;;;;;;;;;10465607;28;20215;-75
2022/12/22 22:08:53;;;;;;;5.68;5.18;;;;;;;;;;10451183;28;20222;-76
2022/12/22 22:13:54;;;;;;;7.53;5.50;;;;;;;;;;10439800;28;20222;-76
2022/12/22 22:18:55;;;;;;;5.78;5.00;;;;;;;;;;10445466;28;20693;-75
2022/12/22 22:23:56;;;;;;;6.68;5.25;;;;;;;;;;10468882;28;20213;-75
2022/12/22 22:28:57;;;;;;;9.23;6.28;;;;;;;;;;10471369;28;20605;-75
2022/12/22 22:33:58;;;;;;;6.50;5.43;;;;;;;;;;10458171;28;20261;-76
2022/12/22 22:38:59;;;;;;;8.70;6.18;;;;;;;;;;10472038;28;20872;-75
2022/12/22 22:44:00;;;;;;;10.27;5.43;;;;;;;;;;10467087;28;20214;-75
2022/12/22 22:49:01;;;;;;;7.88;4.88;;;;;;;;;;10465223;28;20211;-76
2022/12/22 22:54:03;;;;;;;8.40;4.68;;;;;;;;;;10460458;28;20212;-76
2022/12/22 22:59:04;;;;;;;5.63;4.88;;;;;;;;;;10465824;28;20236;-76
2022/12/22 23:04:05;;;;;;;4.43;4.00;;;;;;;;;;10463998;28;20210;-76
2022/12/22 23:09:07;;;;;;;4.22;3.83;;;;;;;;;;10446243;28;20950;-76
2022/12/22 23:14:08;;;;;;;5.53;4.05;;;;;;;;;;10464438;28;20287;-76
2022/12/22 23:19:09;;;;;;;4.38;3.97;;;;;;;;;;10464051;28;20218;-75
2022/12/22 23:24:11;;;;;;;6.25;4.35;;;;;;;;;;10448191;28;20621;-76
2022/12/22 23:29:12;;;;;;;5.40;4.47;;;;;;;;;;10463357;28;20215;-75
2022/12/22 23:34:13;;;;;;;7.00;4.70;;;;;;;;;;10462699;28;20234;-75
2022/12/22 23:39:14;;;;;;;5.43;4.93;;;;;;;;;;10445585;28;20217;-75
2022/12/22 23:44:15;;;;;;;6.55;5.57;;;;;;;;;;10464971;28;20210;-75
2022/12/22 23:49:16;;;;;;;10.55;5.53;;;;;;;;;;10467620;28;20214;-75
2022/12/22 23:54:17;;;;;;;7.25;4.93;;;;;;;;;;10438493;28;20602;-75
2022/12/22 23:59:18;;;;;;;6.50;5.15;;;;;;;;;;10465119;28;20245;-76
